createdAt,value
2023-04-08T00:00:59.761Z,97895.00
2023-04-08T00:03:01.194Z,97887.47
2023-04-08T00:05:02.918Z,97894.28
2023-04-08T00:07:04.245Z,97889.31
2023-04-08T00:09:05.561Z,97885.19
2023-04-08T00:11:06.907Z,97889.53
2023-04-08T00:13:08.203Z,97888.75
2023-04-08T00:15:09.509Z,97894.88
2023-04-08T00:17:11.229Z,97890.78
2023-04-08T00:19:12.572Z,97894.28
2023-04-08T00:21:16.454Z,97882.50
2023-04-08T00:23:18.119Z,97891.94
2023-04-08T00:25:19.520Z,97890.31
2023-04-08T00:27:21.040Z,97887.88
2023-04-08T00:29:22.343Z,97891.41
2023-04-08T00:31:23.785Z,97892.34
2023-04-08T00:33:25.892Z,97894.97
2023-04-08T00:35:27.297Z,97889.97
2023-04-08T00:37:28.623Z,97887.50
2023-04-08T00:39:29.977Z,97887.56
2023-04-08T00:41:31.305Z,97899.53
2023-04-08T00:43:32.608Z,97896.19
2023-04-08T00:45:33.942Z,97898.81
2023-04-08T00:47:35.299Z,97900.56
2023-04-08T00:49:37.183Z,97904.88
2023-04-08T00:51:38.620Z,97907.38
2023-04-08T00:53:39.933Z,97898.88
2023-04-08T00:55:41.303Z,97904.81
2023-04-08T00:57:42.612Z,97903.94
2023-04-08T00:59:43.922Z,97894.56
2023-04-08T01:01:45.543Z,97891.09
2023-04-08T01:03:47.095Z,97891.88
2023-04-08T01:05:48.474Z,97883.16
2023-04-08T01:07:49.834Z,97883.84
2023-04-08T01:09:51.155Z,97882.88
2023-04-08T01:11:52.703Z,97889.53
2023-04-08T01:13:54.007Z,97898.81
2023-04-08T01:15:55.375Z,97901.22
2023-04-08T01:17:57.447Z,97902.81
2023-04-08T01:19:59.502Z,97903.56
2023-04-08T01:22:00.814Z,97895.84
2023-04-08T01:24:02.259Z,97901.75
2023-04-08T01:26:03.594Z,97900.06
2023-04-08T01:28:04.899Z,97904.28
2023-04-08T01:30:06.218Z,97896.59
2023-04-08T01:32:07.556Z,97896.63
2023-04-08T01:34:08.891Z,97899.19
2023-04-08T01:36:10.577Z,97898.44
2023-04-08T01:38:11.884Z,97893.34
2023-04-08T01:40:13.180Z,97896.03
2023-04-08T01:42:14.473Z,97892.63
2023-04-08T01:44:15.803Z,97897.88
2023-04-08T01:46:17.147Z,97901.38
2023-04-08T01:48:18.477Z,97892.09
2023-04-08T01:50:19.821Z,97897.31
2023-04-08T01:52:21.140Z,97901.66
2023-04-08T01:54:22.442Z,97896.63
2023-04-08T01:56:23.750Z,97897.56
2023-04-08T01:58:25.138Z,97904.47
2023-04-08T02:00:26.518Z,97897.56
2023-04-08T02:02:27.948Z,97894.94
2023-04-08T02:04:29.586Z,97899.16
2023-04-08T02:06:32.286Z,97894.13
2023-04-08T02:08:33.582Z,97901.84
2023-04-08T02:10:34.904Z,97894.22
2023-04-08T02:12:36.267Z,97897.66
2023-04-08T02:14:37.554Z,97895.94
2023-04-08T02:16:38.951Z,97895.94
2023-04-08T02:18:40.328Z,97895.88
2023-04-08T02:20:41.620Z,97896.81
2023-04-08T02:22:42.962Z,97900.25
2023-04-08T02:24:44.616Z,97912.19
2023-04-08T02:26:46.265Z,97901.03
2023-04-08T02:28:48.360Z,97901.00
2023-04-08T02:30:49.916Z,97900.06
2023-04-08T02:32:51.339Z,97906.75
2023-04-08T02:34:52.639Z,97899.81
2023-04-08T02:36:53.941Z,97899.72
2023-04-08T02:38:55.299Z,97900.50
2023-04-08T02:40:56.826Z,97908.81
2023-04-08T02:42:58.170Z,97907.00
2023-04-08T02:44:59.462Z,97911.97
2023-04-08T02:47:00.821Z,97901.72
2023-04-08T02:49:02.155Z,97909.34
2023-04-08T02:51:03.583Z,97906.81
2023-04-08T02:53:04.964Z,97911.03
2023-04-08T02:55:10.086Z,97911.88
2023-04-08T02:57:11.414Z,97906.78
2023-04-08T02:59:12.704Z,97905.97
2023-04-08T03:01:14.108Z,97898.44
2023-04-08T03:03:15.557Z,97907.03
2023-04-08T03:05:16.996Z,97918.13
2023-04-08T03:07:18.319Z,97911.44
2023-04-08T03:09:19.708Z,97918.38
2023-04-08T03:11:21.578Z,97915.06
2023-04-08T03:13:22.918Z,97910.03
2023-04-08T03:15:24.344Z,97911.00
2023-04-08T03:17:25.677Z,97911.06
2023-04-08T03:19:27.005Z,97908.66
2023-04-08T03:21:28.375Z,97907.84
2023-04-08T03:23:29.663Z,97906.22
2023-04-08T03:25:31.793Z,97905.44
2023-04-08T03:27:33.189Z,97904.63
2023-04-08T03:29:34.480Z,97907.25
2023-04-08T03:31:35.852Z,97908.88
2023-04-08T03:33:37.210Z,97902.13
2023-04-08T03:35:38.874Z,97911.47
2023-04-08T03:37:40.489Z,97908.09
2023-04-08T03:39:41.795Z,97900.44
2023-04-08T03:41:43.088Z,97907.25
2023-04-08T03:43:44.433Z,97908.09
2023-04-08T03:45:45.882Z,97900.41
2023-04-08T03:47:47.234Z,97903.72
2023-04-08T03:49:48.611Z,97906.16
2023-04-08T03:51:50.129Z,97917.09
2023-04-08T03:53:51.419Z,97904.22
2023-04-08T03:55:52.978Z,97912.44
2023-04-08T03:57:54.280Z,97913.13
2023-04-08T03:59:55.567Z,97925.78
2023-04-08T04:01:57.134Z,97919.75
2023-04-08T04:03:58.600Z,97921.34
2023-04-08T04:05:59.997Z,97925.38
2023-04-08T04:08:01.291Z,97922.72
2023-04-08T04:10:02.686Z,97924.38
2023-04-08T04:12:04.027Z,97931.19
2023-04-08T04:14:05.417Z,97933.75
2023-04-08T04:16:06.758Z,97938.94
2023-04-08T04:18:08.259Z,97939.78
2023-04-08T04:20:09.665Z,97938.16
2023-04-08T04:22:11.014Z,97950.13
2023-04-08T04:24:13.532Z,97950.25
2023-04-08T04:26:15.360Z,97947.06
2023-04-08T04:28:16.692Z,97947.13
2023-04-08T04:30:19.504Z,97945.50
2023-04-08T04:32:20.935Z,97948.06
2023-04-08T04:34:22.243Z,97949.88
2023-04-08T04:36:23.659Z,97949.06
2023-04-08T04:38:25.006Z,97951.78
2023-04-08T04:40:27.028Z,97954.41
2023-04-08T04:42:28.397Z,97950.31
2023-04-08T04:44:30.083Z,97957.22
2023-04-08T04:46:31.511Z,97953.88
2023-04-08T04:48:32.860Z,97966.72
2023-04-08T04:50:34.152Z,97970.16
2023-04-08T04:52:35.475Z,97961.72
2023-04-08T04:54:36.766Z,97972.84
2023-04-08T04:56:38.070Z,97971.13
2023-04-08T04:58:39.413Z,97980.50
2023-04-08T05:00:41.138Z,97981.34
2023-04-08T05:02:42.554Z,97991.53
2023-04-08T05:04:44.015Z,97992.34
2023-04-08T05:06:45.394Z,97996.59
2023-04-08T05:08:46.692Z,97996.59
2023-04-08T05:10:50.266Z,97998.22
2023-04-08T05:12:51.643Z,97999.84
2023-04-08T05:14:52.941Z,98006.59
2023-04-08T05:16:54.244Z,98005.59
2023-04-08T05:18:55.567Z,98013.09
2023-04-08T05:20:56.887Z,98021.47
2023-04-08T05:22:58.181Z,98014.50
2023-04-08T05:24:59.479Z,98021.22
2023-04-08T05:27:01.239Z,98020.22
2023-04-08T05:29:02.556Z,98013.34
2023-04-08T05:31:03.994Z,98020.88
2023-04-08T05:33:05.453Z,98032.69
2023-04-08T05:35:06.779Z,98036.06
2023-04-08T05:37:08.083Z,98036.06
2023-04-08T05:39:09.412Z,98036.97
2023-04-08T05:41:10.810Z,98042.91
2023-04-08T05:43:12.151Z,98042.97
2023-04-08T05:45:13.441Z,98044.63
2023-04-08T05:47:14.958Z,98048.16
2023-04-08T05:49:17.410Z,98044.81
2023-04-08T05:51:18.815Z,98043.22
2023-04-08T05:53:20.155Z,98057.75
2023-04-08T05:55:21.446Z,98056.97
2023-04-08T05:57:22.737Z,98050.28
2023-04-08T05:59:24.059Z,98054.63
2023-04-08T06:01:26.294Z,98052.97
2023-04-08T06:03:27.798Z,98053.88
2023-04-08T06:05:29.499Z,98055.59
2023-04-08T06:07:31.091Z,98055.66
2023-04-08T06:09:32.388Z,98061.66
2023-04-08T06:11:33.897Z,98060.94
2023-04-08T06:13:35.272Z,98063.53
2023-04-08T06:15:36.588Z,98069.56
2023-04-08T06:17:38.210Z,98077.22
2023-04-08T06:19:39.669Z,98073.09
2023-04-08T06:21:40.980Z,98072.34
2023-04-08T06:23:42.292Z,98080.88
2023-04-08T06:25:44.045Z,98083.47
2023-04-08T06:27:45.350Z,98084.19
2023-04-08T06:29:47.210Z,98090.09
2023-04-08T06:31:48.623Z,98085.84
2023-04-08T06:33:50.015Z,98086.69
2023-04-08T06:35:51.789Z,98088.34
2023-04-08T06:37:53.308Z,98095.88
2023-04-08T06:39:57.736Z,98095.81
2023-04-08T06:41:59.377Z,98085.38
2023-04-08T06:44:00.869Z,98091.28
2023-04-08T06:46:02.275Z,98095.44
2023-04-08T06:48:03.697Z,98089.44
2023-04-08T06:50:05.036Z,98098.75
2023-04-08T06:52:09.227Z,98098.59
2023-04-08T06:54:10.544Z,98101.97
2023-04-08T06:56:11.835Z,98112.94
2023-04-08T06:58:15.915Z,98106.94
2023-04-08T07:00:17.337Z,98110.34
2023-04-08T07:02:18.683Z,98108.59
2023-04-08T07:04:20.212Z,98112.03
2023-04-08T07:06:21.591Z,98111.19
2023-04-08T07:08:22.969Z,98119.69
2023-04-08T07:10:24.424Z,98110.31
2023-04-08T07:12:25.739Z,98118.59
2023-04-08T07:14:27.084Z,98129.94
2023-04-08T07:16:31.321Z,98128.41
2023-04-08T07:18:32.970Z,98134.81
2023-04-08T07:20:38.294Z,98132.50
2023-04-08T07:22:39.647Z,98146.22
2023-04-08T07:24:43.397Z,98139.53
2023-04-08T07:26:44.687Z,98148.97
2023-04-08T07:28:46.134Z,98143.13
2023-04-08T07:30:47.514Z,98140.88
2023-04-08T07:32:48.936Z,98151.88
2023-04-08T07:34:50.551Z,98144.81
2023-04-08T07:36:51.885Z,98139.31
2023-04-08T07:38:53.185Z,98141.53
2023-04-08T07:40:54.483Z,98138.75
2023-04-08T07:42:56.028Z,98135.03
2023-04-08T07:44:57.344Z,98144.31
2023-04-08T07:46:58.669Z,98149.19
2023-04-08T07:49:00.018Z,98148.22
2023-04-08T07:51:09.852Z,98152.44
2023-04-08T07:53:12.527Z,98155.81
2023-04-08T07:55:13.868Z,98164.22
2023-04-08T07:57:15.289Z,98156.53
2023-04-08T07:59:16.862Z,98162.47
2023-04-08T08:01:18.981Z,98164.16
2023-04-08T08:03:20.626Z,98165.22
2023-04-08T08:05:22.105Z,98170.16
2023-04-08T08:07:23.427Z,98165.50
2023-04-08T08:09:24.722Z,98167.66
2023-04-08T08:11:28.027Z,98174.88
2023-04-08T08:13:29.378Z,98180.75
2023-04-08T08:15:30.682Z,98179.03
2023-04-08T08:17:33.730Z,98184.13
2023-04-08T08:19:35.397Z,98181.63
2023-04-08T08:21:36.744Z,98190.25
2023-04-08T08:23:38.056Z,98198.28
2023-04-08T08:25:39.427Z,98194.88
2023-04-08T08:27:42.288Z,98194.72
2023-04-08T08:29:43.576Z,98191.47
2023-04-08T08:31:45.091Z,98190.88
2023-04-08T08:33:47.286Z,98195.31
2023-04-08T08:35:48.703Z,98195.50
2023-04-08T08:37:50.064Z,98202.44
2023-04-08T08:39:51.493Z,98202.63
2023-04-08T08:41:52.839Z,98203.38
2023-04-08T08:43:54.148Z,98215.31
2023-04-08T08:45:55.476Z,98206.13
2023-04-08T08:48:02.967Z,98206.94
2023-04-08T08:50:05.168Z,98209.50
2023-04-08T08:52:06.968Z,98216.31
2023-04-08T08:54:08.559Z,98214.69
2023-04-08T08:58:14.263Z,98224.25
2023-04-08T09:00:19.449Z,98229.38
2023-04-08T09:02:20.873Z,98227.72
2023-04-08T09:04:23.017Z,98229.47
2023-04-08T09:06:24.450Z,98238.75
2023-04-08T09:08:26.224Z,98231.94
2023-04-08T09:10:27.560Z,98244.66
2023-04-08T09:12:29.697Z,98242.09
2023-04-08T09:14:30.983Z,98250.56
2023-04-08T09:16:41.474Z,98250.53
2023-04-08T09:18:44.717Z,98257.31
2023-04-08T09:20:46.101Z,98261.59
2023-04-08T09:22:47.686Z,98261.56
2023-04-08T09:24:48.999Z,98259.88
2023-04-08T09:26:50.654Z,98266.59
2023-04-08T09:28:51.987Z,98269.13
2023-04-08T09:30:53.284Z,98267.44
2023-04-08T09:32:54.711Z,98270.78
2023-04-08T09:34:56.617Z,98269.91
2023-04-08T09:36:57.922Z,98274.16
2023-04-08T09:38:59.355Z,98275.84
2023-04-08T09:41:00.703Z,98277.56
2023-04-08T09:43:02.182Z,98277.56
2023-04-08T09:45:03.985Z,98283.50
2023-04-08T09:47:05.778Z,98286.06
2023-04-08T09:49:09.930Z,98280.97
2023-04-08T09:51:11.223Z,98285.16
2023-04-08T09:53:12.555Z,98282.63
2023-04-08T09:55:14.460Z,98276.72
2023-04-08T09:57:16.343Z,98284.34
2023-04-08T09:59:17.693Z,98285.22
2023-04-08T10:01:19.064Z,98283.56
2023-04-08T10:03:20.463Z,98282.78
2023-04-08T10:05:22.127Z,98289.53
2023-04-08T10:07:23.494Z,98294.69
2023-04-08T10:09:24.797Z,98298.94
2023-04-08T10:11:26.260Z,98291.31
2023-04-08T10:13:28.437Z,98283.69
2023-04-08T10:15:29.793Z,98292.25
2023-04-08T10:17:36.688Z,98289.69
2023-04-08T10:19:41.476Z,98291.38
2023-04-08T10:21:50.189Z,98298.22
2023-04-08T10:23:54.504Z,98290.56
2023-04-08T10:25:56.111Z,98296.53
2023-04-08T10:27:57.495Z,98300.78
2023-04-08T10:30:01.749Z,98299.09
2023-04-08T10:32:03.241Z,98300.78
2023-04-08T10:34:04.648Z,98309.31
2023-04-08T10:36:05.980Z,98306.75
2023-04-08T10:38:07.301Z,98307.56
2023-04-08T10:40:08.588Z,98312.72
2023-04-08T10:42:09.944Z,98312.72
2023-04-08T10:44:11.244Z,98316.97
2023-04-08T10:46:12.735Z,98317.81
2023-04-08T10:48:14.092Z,98317.81
2023-04-08T10:50:15.534Z,98320.31
2023-04-08T10:52:16.947Z,98324.59
2023-04-08T10:54:18.278Z,98316.09
2023-04-08T10:56:19.653Z,98321.22
2023-04-08T10:58:21.054Z,98325.47
2023-04-08T11:00:22.340Z,98328.84
2023-04-08T11:02:23.775Z,98332.25
2023-04-08T11:04:25.324Z,98326.31
2023-04-08T11:06:27.825Z,98335.69
2023-04-08T11:08:29.431Z,98334.81
2023-04-08T11:10:31.119Z,98339.94
2023-04-08T11:12:32.595Z,98343.31
2023-04-08T11:14:33.886Z,98330.59
2023-04-08T11:16:35.279Z,98337.38
2023-04-08T11:18:36.639Z,98328.03
2023-04-08T11:20:38.350Z,98331.41
2023-04-08T11:22:39.658Z,98334.81
2023-04-08T11:24:40.993Z,98338.19
2023-04-08T11:26:51.873Z,98336.50
2023-04-08T11:28:53.211Z,98335.63
2023-04-08T11:30:54.592Z,98328.81
2023-04-08T11:32:56.948Z,98328.81
2023-04-08T11:34:58.651Z,98333.91
2023-04-08T11:36:59.954Z,98326.22
2023-04-08T11:39:01.302Z,98326.16
2023-04-08T11:41:02.595Z,98325.34
2023-04-08T11:43:04.008Z,98327.91
2023-04-08T11:45:05.318Z,98332.19
2023-04-08T11:47:07.286Z,98334.78
2023-04-08T11:49:08.703Z,98327.97
2023-04-08T11:51:10.318Z,98333.91
2023-04-08T11:53:11.635Z,98333.06
2023-04-08T11:55:13.052Z,98334.75
2023-04-08T11:57:15.500Z,98335.63
2023-04-08T11:59:16.793Z,98336.47
2023-04-08T12:01:18.113Z,98333.09
2023-04-08T12:03:19.533Z,98338.19
2023-04-08T12:05:21.445Z,98336.50
2023-04-08T12:07:22.746Z,98332.28
2023-04-08T12:09:24.105Z,98335.72
2023-04-08T12:11:26.011Z,98342.53
2023-04-08T12:13:27.785Z,98339.13
2023-04-08T12:15:29.079Z,98335.75
2023-04-08T12:17:30.566Z,98334.91
2023-04-08T12:19:37.800Z,98334.91
2023-04-08T12:21:40.059Z,98340.84
2023-04-08T12:23:41.558Z,98337.50
2023-04-08T12:25:43.108Z,98345.13
2023-04-08T12:27:44.416Z,98341.72
2023-04-08T12:29:46.265Z,98346.84
2023-04-08T12:31:47.633Z,98343.44
2023-04-08T12:33:49.153Z,98352.78
2023-04-08T12:35:50.656Z,98362.94
2023-04-08T12:37:51.964Z,98357.03
2023-04-08T12:39:53.263Z,98360.44
2023-04-08T12:41:57.585Z,98357.03
2023-04-08T12:43:58.891Z,98355.34
2023-04-08T12:46:00.226Z,98364.69
2023-04-08T12:48:02.217Z,98363.00
2023-04-08T12:50:03.540Z,98351.97
2023-04-08T12:52:05.395Z,98351.16
2023-04-08T12:54:06.807Z,98365.56
2023-04-08T12:56:08.129Z,98358.75
2023-04-08T12:58:09.459Z,98365.56
2023-04-08T13:00:11.348Z,98356.25
2023-04-08T13:02:12.706Z,98362.16
2023-04-08T13:04:14.139Z,98362.16
2023-04-08T13:06:15.680Z,98363.03
2023-04-08T13:08:17.647Z,98362.19
2023-04-08T13:10:19.011Z,98362.19
2023-04-08T13:12:20.310Z,98357.09
2023-04-08T13:14:21.911Z,98357.91
2023-04-08T13:16:26.019Z,98359.63
2023-04-08T13:18:27.379Z,98355.41
2023-04-08T13:20:28.741Z,98358.78
2023-04-08T13:22:30.039Z,98367.25
2023-04-08T13:24:31.362Z,98363.91
2023-04-08T13:26:32.663Z,98367.28
2023-04-08T13:28:38.728Z,98369.81
2023-04-08T13:30:47.878Z,98370.69
2023-04-08T13:32:49.284Z,98373.25
2023-04-08T13:34:50.599Z,98360.50
2023-04-08T13:36:51.929Z,98367.28
2023-04-08T13:38:53.713Z,98368.13
2023-04-08T13:40:55.816Z,98368.09
2023-04-08T13:42:57.270Z,98363.84
2023-04-08T13:44:58.595Z,98370.66
2023-04-08T13:47:00.078Z,98369.81
2023-04-08T13:49:08.152Z,98374.06
2023-04-08T13:51:09.443Z,98374.09
2023-04-08T13:53:10.871Z,98363.94
2023-04-08T13:55:14.882Z,98370.78
2023-04-08T13:57:18.977Z,98369.13
2023-04-08T13:59:20.340Z,98373.34
2023-04-08T14:01:21.710Z,98364.94
2023-04-08T14:03:23.149Z,98370.03
2023-04-08T14:05:24.488Z,98372.59
2023-04-08T14:07:25.792Z,98372.56
2023-04-08T14:09:27.138Z,98374.28
2023-04-08T14:11:28.480Z,98371.72
2023-04-08T14:13:29.780Z,98379.38
2023-04-08T14:15:31.076Z,98373.38
2023-04-08T14:17:33.103Z,98372.50
2023-04-08T14:19:34.484Z,98377.59
2023-04-08T14:21:37.877Z,98373.38
2023-04-08T14:23:39.292Z,98372.47
2023-04-08T14:25:40.947Z,98370.78
2023-04-08T14:27:56.756Z,98377.53
2023-04-08T14:29:59.641Z,98379.25
2023-04-08T14:32:01.044Z,98384.34
2023-04-08T14:34:02.399Z,98380.94
2023-04-08T14:36:03.750Z,98379.25
2023-04-08T14:38:05.051Z,98388.56
2023-04-08T14:40:06.386Z,98382.63
2023-04-08T14:42:07.732Z,98386.00
2023-04-08T14:44:09.043Z,98389.41
2023-04-08T14:46:10.533Z,98403.84
2023-04-08T14:48:11.911Z,98391.09
2023-04-08T14:50:13.262Z,98394.50
2023-04-08T14:52:14.847Z,98397.94
2023-04-08T14:54:16.867Z,98395.38
2023-04-08T14:56:18.156Z,98406.41
2023-04-08T14:58:20.113Z,98403.03
2023-04-08T15:00:24.417Z,98401.31
2023-04-08T15:02:25.963Z,98403.03
2023-04-08T15:04:27.410Z,98410.69
2023-04-08T15:06:32.265Z,98408.97
2023-04-08T15:08:35.115Z,98251.16
2023-04-08T15:10:36.461Z,98412.38
2023-04-08T15:12:37.863Z,98412.38
2023-04-08T15:14:39.210Z,98408.97
2023-04-08T15:16:40.812Z,98414.06
2023-04-08T15:18:42.366Z,98417.47
2023-04-08T15:20:43.688Z,98421.72
2023-04-08T15:22:45.427Z,98421.75
2023-04-08T15:24:48.048Z,98415.78
2023-04-08T15:26:49.421Z,98420.03
2023-04-08T15:28:52.310Z,98412.38
2023-04-08T15:30:53.870Z,98412.41
2023-04-08T15:32:57.376Z,98424.31
2023-04-08T15:34:58.971Z,98425.19
2023-04-08T15:37:02.230Z,98418.34
2023-04-08T15:39:03.665Z,98431.94
2023-04-08T15:41:04.996Z,98426.84
2023-04-08T15:43:06.761Z,98425.19
2023-04-08T15:45:08.098Z,98426.88
2023-04-08T15:47:09.559Z,98432.81
2023-04-08T15:49:11.125Z,98437.06
2023-04-08T15:51:13.640Z,98436.22
2023-04-08T15:53:14.951Z,98425.19
2023-04-08T15:55:19.162Z,98442.16
2023-04-08T15:57:26.532Z,98431.97
2023-04-08T15:59:28.115Z,98433.66
2023-04-08T16:01:29.519Z,98432.81
2023-04-08T16:03:31.848Z,98431.97
2023-04-08T16:05:35.890Z,98439.63
2023-04-08T16:07:37.497Z,98441.38
2023-04-08T16:09:38.836Z,98441.41
2023-04-08T16:11:40.181Z,98443.97
2023-04-08T16:13:42.582Z,98437.22
2023-04-08T16:15:44.242Z,98446.56
2023-04-08T16:17:45.729Z,98446.59
2023-04-08T16:19:47.257Z,98439.81
2023-04-08T16:21:48.663Z,98451.72
2023-04-08T16:23:50.461Z,98447.44
2023-04-08T16:25:52.106Z,98451.69
2023-04-08T16:27:56.437Z,98440.63
2023-04-08T16:29:57.856Z,98451.66
2023-04-08T16:32:02.366Z,98454.22
2023-04-08T16:34:04.983Z,98461.81
2023-04-08T16:36:06.440Z,98454.16
2023-04-08T16:38:07.872Z,98466.06
2023-04-08T16:40:09.464Z,98456.69
2023-04-08T16:42:10.975Z,98456.69
2023-04-08T16:44:12.332Z,98460.91
2023-04-08T16:46:13.661Z,98460.91
2023-04-08T16:48:17.704Z,98468.56
2023-04-08T16:50:19.036Z,98477.06
2023-04-08T16:52:20.811Z,98474.50
2023-04-08T16:54:22.372Z,98465.16
2023-04-08T16:56:23.739Z,98469.41
2023-04-08T16:58:25.071Z,98467.69
2023-04-08T17:00:26.460Z,98471.06
2023-04-08T17:02:27.895Z,98471.06
2023-04-08T17:04:29.273Z,98477.88
2023-04-08T17:06:31.325Z,98473.66
2023-04-08T17:08:33.459Z,98472.81
2023-04-08T17:10:35.607Z,98469.41
2023-04-08T17:12:36.967Z,98470.22
2023-04-08T17:14:38.526Z,98477.91
2023-04-08T17:16:39.826Z,98472.81
2023-04-08T17:18:41.195Z,98476.19
2023-04-08T17:20:44.329Z,98475.34
2023-04-08T17:22:45.912Z,98482.16
2023-04-08T17:24:48.179Z,98481.28
2023-04-08T17:26:49.676Z,98495.75
2023-04-08T17:28:50.999Z,98492.34
2023-04-08T17:30:52.359Z,98504.25
2023-04-08T17:32:53.717Z,98503.41
2023-04-08T17:34:55.570Z,98511.91
2023-04-08T17:36:57.315Z,98511.03
2023-04-08T17:38:58.647Z,98511.91
2023-04-08T17:40:59.965Z,98513.59
2023-04-08T17:43:02.153Z,98515.28
2023-04-08T17:45:03.522Z,98515.28
2023-04-08T17:47:07.696Z,98513.59
2023-04-08T17:49:12.718Z,98520.38
2023-04-08T17:51:14.061Z,98518.69
2023-04-08T17:53:15.463Z,98518.69
2023-04-08T17:55:22.689Z,98516.97
2023-04-08T17:57:24.011Z,98524.63
2023-04-08T17:59:25.606Z,98523.78
2023-04-08T18:01:27.051Z,98524.63
2023-04-08T18:03:28.457Z,98531.41
2023-04-08T18:05:30.145Z,98531.41
2023-04-08T18:07:31.606Z,98539.06
2023-04-08T18:09:32.978Z,98539.06
2023-04-08T18:11:34.267Z,98540.75
2023-04-08T18:13:35.693Z,98539.91
2023-04-08T18:15:37.088Z,98544.97
2023-04-08T18:17:38.482Z,98541.59
2023-04-08T18:19:39.819Z,98545.84
2023-04-08T18:21:41.178Z,98538.22
2023-04-08T18:23:42.522Z,98539.03
2023-04-08T18:25:44.655Z,98547.53
2023-04-08T18:27:46.112Z,98550.09
2023-04-08T18:29:47.503Z,98545.00
2023-04-08T18:31:48.860Z,98543.31
2023-04-08T18:33:50.341Z,98542.47
2023-04-08T18:35:53.028Z,98549.25
2023-04-08T18:37:54.364Z,98549.25
2023-04-08T18:40:02.470Z,98559.44
2023-04-08T18:42:04.118Z,98560.28
2023-04-08T18:44:05.518Z,98562.00
2023-04-08T18:46:07.090Z,98562.84
2023-04-08T18:48:08.546Z,98561.16
2023-04-08T18:50:09.866Z,98564.53
2023-04-08T18:52:11.284Z,98572.22
2023-04-08T18:54:12.614Z,98573.88
2023-04-08T18:56:13.912Z,98582.41
2023-04-08T18:58:18.337Z,98576.47
2023-04-08T19:00:22.452Z,98584.94
2023-04-08T19:02:23.897Z,98583.25
2023-04-08T19:04:25.439Z,98578.16
2023-04-08T19:06:29.283Z,98579.84
2023-04-08T19:08:33.711Z,98573.91
2023-04-08T19:10:36.291Z,98587.47
2023-04-08T19:12:37.614Z,98584.94
2023-04-08T19:14:39.574Z,98585.78
2023-04-08T19:16:43.751Z,98584.97
2023-04-08T19:18:45.046Z,98582.41
2023-04-08T19:20:46.923Z,98589.16
2023-04-08T19:22:49.073Z,98584.06
2023-04-08T19:24:54.952Z,98591.75
2023-04-08T19:26:56.559Z,98594.28
2023-04-08T19:28:57.858Z,98590.06
2023-04-08T19:31:02.199Z,98590.88
2023-04-08T19:33:03.579Z,98587.44
2023-04-08T19:35:04.942Z,98588.34
2023-04-08T19:37:07.231Z,98588.31
2023-04-08T19:39:08.724Z,98587.47
2023-04-08T19:41:10.316Z,98584.97
2023-04-08T19:43:11.616Z,98592.56
2023-04-08T19:45:12.918Z,98600.22
2023-04-08T19:47:14.722Z,98593.44
2023-04-08T19:49:16.248Z,98595.97
2023-04-08T19:51:20.289Z,98598.50
2023-04-08T19:53:21.710Z,98598.53
2023-04-08T19:55:23.172Z,98593.41
2023-04-08T19:57:28.559Z,98604.47
2023-04-08T19:59:29.873Z,98600.22
2023-04-08T20:01:34.460Z,98606.16
2023-04-08T20:03:36.006Z,98604.47
2023-04-08T20:05:40.119Z,98606.16
2023-04-08T20:07:41.479Z,98615.50
2023-04-08T20:09:42.799Z,98607.88
2023-04-08T20:11:44.220Z,98612.09
2023-04-08T20:13:47.132Z,98604.50
2023-04-08T20:15:48.470Z,98608.72
2023-04-08T20:17:49.875Z,98612.13
2023-04-08T20:19:51.367Z,98608.72
2023-04-08T20:21:53.244Z,98600.25
2023-04-08T20:23:54.608Z,98613.88
2023-04-08T20:25:56.683Z,98624.03
2023-04-08T20:27:58.139Z,98631.72
2023-04-08T20:29:59.853Z,98628.31
2023-04-08T20:32:01.202Z,98634.25
2023-04-08T20:34:03.463Z,98630.00
2023-04-08T20:36:04.833Z,98635.94
2023-04-08T20:38:06.157Z,98630.03
2023-04-08T20:40:07.485Z,98630.84
2023-04-08T20:42:09.598Z,98635.09
2023-04-08T20:44:11.076Z,98621.53
2023-04-08T20:46:12.410Z,98627.47
2023-04-08T20:48:13.826Z,98627.47
2023-04-08T20:50:15.320Z,98624.06
2023-04-08T20:52:16.792Z,98620.66
2023-04-08T20:54:18.566Z,98626.59
2023-04-08T20:56:22.996Z,98627.47
2023-04-08T20:58:24.280Z,98625.75
2023-04-08T21:00:25.604Z,98630.84
2023-04-08T21:02:27.055Z,98621.50
2023-04-08T21:04:28.489Z,98621.50
2023-04-08T21:06:29.884Z,98617.25
2023-04-08T21:08:31.214Z,98630.84
2023-04-08T21:10:32.551Z,98619.81
2023-04-08T21:12:33.874Z,98624.91
2023-04-08T21:14:35.165Z,98626.63
2023-04-08T21:16:36.562Z,98626.63
2023-04-08T21:18:37.943Z,98624.91
2023-04-08T21:20:39.320Z,98625.72
2023-04-08T21:22:40.616Z,98618.09
2023-04-08T21:24:41.912Z,98631.66
2023-04-08T21:26:43.295Z,98619.78
2023-04-08T21:28:44.643Z,98618.91
2023-04-08T21:30:46.127Z,98614.69
2023-04-08T21:32:47.742Z,98607.03
2023-04-08T21:34:49.120Z,98611.28
2023-04-08T21:36:50.406Z,98599.41
2023-04-08T21:38:51.825Z,98599.38
2023-04-08T21:40:56.432Z,98596.00
2023-04-08T21:42:57.714Z,98598.53
2023-04-08T21:44:59.013Z,98598.56
2023-04-08T21:47:03.367Z,98596.00
2023-04-08T21:49:04.667Z,98614.66
2023-04-08T21:51:06.963Z,98609.56
2023-04-08T21:53:08.272Z,98603.63
2023-04-08T21:55:09.611Z,98614.66
2023-04-08T21:57:11.155Z,98618.94
2023-04-08T21:59:12.450Z,98617.25
2023-04-08T22:01:13.837Z,98620.66
2023-04-08T22:03:15.491Z,98631.66
2023-04-08T22:05:16.893Z,98630.84
2023-04-08T22:07:18.215Z,98624.00
2023-04-08T22:09:19.651Z,98624.03
2023-04-08T22:11:20.939Z,98626.56
2023-04-08T22:13:22.249Z,98622.34
2023-04-08T22:15:23.581Z,98616.41
2023-04-08T22:17:25.126Z,98622.34
2023-04-08T22:19:26.475Z,98622.34
2023-04-08T22:21:27.901Z,98619.78
2023-04-08T22:23:29.259Z,98613.88
2023-04-08T22:25:30.608Z,98614.72
2023-04-08T22:27:31.940Z,98613.88
2023-04-08T22:29:33.944Z,98613.88
2023-04-08T22:31:35.503Z,98618.13
2023-04-08T22:33:36.883Z,98614.69
2023-04-08T22:35:38.227Z,98612.16
2023-04-08T22:37:40.375Z,98607.94
2023-04-08T22:39:41.707Z,98609.59
2023-04-08T22:41:43.066Z,98595.19
2023-04-08T22:43:44.383Z,98604.50
2023-04-08T22:45:45.749Z,98609.59
2023-04-08T22:47:47.118Z,98601.94
2023-04-08T22:49:48.447Z,98603.69
2023-04-08T22:51:49.771Z,98599.44
2023-04-08T22:53:51.085Z,98601.13
2023-04-08T22:55:52.383Z,98597.72
2023-04-08T22:57:53.686Z,98595.19
2023-04-08T22:59:54.987Z,98600.28
2023-04-08T23:01:56.423Z,98605.34
2023-04-08T23:03:57.929Z,98611.31
2023-04-08T23:05:59.283Z,98609.63
2023-04-08T23:08:00.892Z,98615.53
2023-04-08T23:10:02.230Z,98607.06
2023-04-08T23:12:03.590Z,98617.25
2023-04-08T23:14:04.943Z,98612.16
2023-04-08T23:16:06.352Z,98610.47
2023-04-08T23:18:07.804Z,98618.97
2023-04-08T23:20:09.173Z,98607.06
2023-04-08T23:22:10.927Z,98616.41
2023-04-08T23:24:12.224Z,98614.72
2023-04-08T23:26:13.615Z,98612.16
2023-04-08T23:28:14.911Z,98609.63
2023-04-08T23:30:16.321Z,98610.47
2023-04-08T23:32:17.780Z,98611.31
2023-04-08T23:34:19.196Z,98608.75
2023-04-08T23:36:20.657Z,98612.16
2023-04-08T23:38:21.959Z,98609.63
2023-04-08T23:40:23.281Z,98608.75
2023-04-08T23:42:27.292Z,98606.25
2023-04-08T23:44:28.771Z,98598.59
2023-04-08T23:46:35.878Z,98598.56
2023-04-08T23:48:37.295Z,98590.97
2023-04-08T23:50:38.608Z,98594.34
2023-04-08T23:52:39.924Z,98591.81